Time;durP1;ratioP1;P1;durP2;ratioP2;P2;SDS_P1;SDS_P2;PMS_P1;PMS_P2;Temp;Humidity;BMP_temperature;BMP_pressure;BME280_temperature;BME280_humidity;BME280_pressure;Samples;Min_cycle;Max_cycle;Signal;HPM_P1;HPM_P2
2022/07/26 00:01:19;;;;;;;3.03;0.30;;;23.60;60.50;;;;;;5111165;28;20036;-74
2022/07/26 00:03:45;;;;;;;1.50;0.50;;;23.50;60.50;;;;;;5111209;28;20115;-74
2022/07/26 00:06:11;;;;;;;2.30;0.32;;;23.50;60.50;;;;;;5111625;28;20547;-74
2022/07/26 00:08:36;;;;;;;2.67;0.63;;;23.50;61.30;;;;;;5111488;28;20039;-74
2022/07/26 00:11:05;;;;;;;2.65;0.50;;;23.50;60.50;;;;;;5111281;28;20461;-74
2022/07/26 00:13:31;;;;;;;3.42;1.45;;;23.50;60.60;;;;;;5111506;28;20036;-74
2022/07/26 00:15:57;;;;;;;2.70;0.30;;;23.50;60.60;;;;;;5111033;28;20044;-74
2022/07/26 00:18:23;;;;;;;2.65;0.50;;;23.50;60.60;;;;;;5112157;28;20047;-75
2022/07/26 00:20:49;;;;;;;1.65;0.32;;;23.50;60.60;;;;;;5110607;28;20043;-74
2022/07/26 00:23:15;;;;;;;2.45;0.45;;;23.50;60.60;;;;;;5110981;28;20080;-74
2022/07/26 00:25:41;;;;;;;3.78;0.40;;;23.50;60.60;;;;;;5110944;28;20396;-74
2022/07/26 00:28:07;;;;;;;2.88;0.40;;;23.50;60.70;;;;;;5110972;28;20036;-74
2022/07/26 00:30:33;;;;;;;2.33;0.38;;;23.50;60.70;;;;;;5111208;28;20040;-74
2022/07/26 00:32:59;;;;;;;2.10;0.85;;;23.50;60.70;;;;;;5111236;28;20387;-74
2022/07/26 00:35:24;;;;;;;1.35;0.43;;;23.50;60.70;;;;;;5110769;28;20532;-74
2022/07/26 00:37:50;;;;;;;1.25;0.30;;;23.50;60.70;;;;;;5112414;28;20039;-75
2022/07/26 00:40:17;;;;;;;2.55;0.40;;;23.50;60.80;;;;;;5112056;28;20039;-74
2022/07/26 00:42:46;;;;;;;2.33;0.60;;;23.50;61.50;;;;;;5110835;28;20044;-74
2022/07/26 00:45:12;;;;;;;1.40;0.52;;;23.50;60.80;;;;;;5110872;28;20413;-74
2022/07/26 00:47:38;;;;;;;2.65;0.82;;;23.50;60.80;;;;;;5111095;28;20058;-74
2022/07/26 00:50:07;;;;;;;1.48;0.35;;;23.50;61.60;;;;;;5111976;28;20043;-74
2022/07/26 00:52:33;;;;;;;2.42;0.40;;;23.50;61.60;;;;;;5110790;28;20043;-73
2022/07/26 00:54:59;;;;;;;2.08;0.40;;;23.50;60.80;;;;;;5111996;28;20131;-74
2022/07/26 00:57:25;;;;;;;2.50;0.70;;;23.50;60.80;;;;;;5112093;28;20081;-74
2022/07/26 00:59:51;;;;;;;1.73;0.30;;;23.50;60.90;;;;;;5110748;28;20032;-74
2022/07/26 01:02:17;;;;;;;2.13;0.32;;;23.40;60.80;;;;;;5110536;28;20043;-74
2022/07/26 01:04:44;;;;;;;1.52;0.30;;;23.50;60.90;;;;;;5110637;28;20043;-74
2022/07/26 01:07:12;;;;;;;2.45;0.30;;;23.50;60.90;;;;;;5110855;28;20456;-74
2022/07/26 01:09:38;;;;;;;1.90;0.50;;;23.40;60.90;;;;;;5110645;28;20040;-74
2022/07/26 01:12:04;;;;;;;2.20;0.60;;;23.40;60.90;;;;;;5111846;28;20506;-74
2022/07/26 01:14:30;;;;;;;2.67;0.82;;;23.40;60.90;;;;;;5110813;28;20097;-74
2022/07/26 01:16:56;;;;;;;1.60;0.30;;;23.40;60.90;;;;;;5110783;28;20047;-74
2022/07/26 01:19:21;;;;;;;2.47;0.50;;;23.40;60.90;;;;;;5110413;28;20470;-74
2022/07/26 01:21:50;;;;;;;2.17;0.50;;;23.40;60.90;;;;;;5110176;28;20104;-74
2022/07/26 01:24:16;;;;;;;2.88;0.90;;;23.40;61.00;;;;;;5110475;28;20051;-74
2022/07/26 01:26:42;;;;;;;2.63;0.52;;;23.40;60.90;;;;;;5110392;28;20483;-74
2022/07/26 01:29:08;;;;;;;2.33;0.43;;;23.40;61.00;;;;;;5111820;28;20043;-74
2022/07/26 01:31:34;;;;;;;2.95;0.47;;;23.40;61.00;;;;;;5114084;28;20055;-74
2022/07/26 01:33:59;;;;;;;2.78;0.57;;;23.40;61.00;;;;;;5114312;28;20050;-75
2022/07/26 01:36:25;;;;;;;1.42;0.40;;;23.40;61.10;;;;;;5114347;28;20387;-74
2022/07/26 01:38:51;;;;;;;1.52;0.45;;;23.40;61.00;;;;;;5114201;28;20039;-74
2022/07/26 01:41:16;;;;;;;1.77;0.32;;;23.40;61.00;;;;;;5115162;28;20046;-74
2022/07/26 01:43:42;;;;;;;3.20;0.63;;;23.40;61.00;;;;;;5114323;28;20031;-74
2022/07/26 01:46:08;;;;;;;2.25;0.40;;;23.40;61.00;;;;;;5113949;28;20039;-74
2022/07/26 01:48:34;;;;;;;1.25;0.47;;;23.40;61.00;;;;;;5115099;28;20120;-74
2022/07/26 01:51:00;;;;;;;2.58;0.20;;;23.40;61.10;;;;;;5114015;28;20070;-74
2022/07/26 01:53:26;;;;;;;2.47;0.73;;;23.40;61.10;;;;;;5113953;28;20032;-74
2022/07/26 01:55:51;;;;;;;2.90;0.68;;;23.40;61.10;;;;;;5114024;28;20433;-74
2022/07/26 01:58:21;;;;;;;3.05;0.70;;;23.40;61.10;;;;;;5114932;28;20085;-74
2022/07/26 02:00:47;;;;;;;2.47;0.40;;;23.40;61.10;;;;;;5113794;28;20040;-74
2022/07/26 02:03:13;;;;;;;2.63;0.35;;;23.40;61.10;;;;;;5113451;28;20069;-74
2022/07/26 02:05:38;;;;;;;1.20;0.20;;;23.30;61.10;;;;;;5113422;28;20039;-76
2022/07/26 02:08:04;;;;;;;1.95;0.40;;;23.30;61.10;;;;;;5113715;28;20035;-74
2022/07/26 02:11:01;;;;;;;3.33;0.50;;;23.30;61.10;;;;;;5113453;28;20594;-74
2022/07/26 02:13:16;;;;;;;2.55;0.40;;;23.30;61.10;;;;;;5113382;28;20040;-74
2022/07/26 02:15:42;;;;;;;1.55;0.47;;;23.30;61.20;;;;;;5114570;28;20039;-74
2022/07/26 02:18:11;;;;;;;1.45;0.40;;;23.30;61.20;;;;;;5114410;28;20422;-75
2022/07/26 02:20:36;;;;;;;2.50;0.60;;;23.30;61.20;;;;;;5113223;28;20471;-74
2022/07/26 02:23:02;;;;;;;2.10;0.30;;;23.30;61.20;;;;;;5112804;28;20059;-74
2022/07/26 02:25:28;;;;;;;1.83;0.52;;;23.30;61.20;;;;;;5114321;28;20067;-75
2022/07/26 02:27:54;;;;;;;2.10;0.30;;;23.30;61.30;;;;;;5114260;28;20432;-74
2022/07/26 02:30:20;;;;;;;1.65;0.35;;;23.20;61.20;;;;;;5113174;28;20475;-74
2022/07/26 02:32:46;;;;;;;1.80;0.45;;;23.20;61.20;;;;;;5112875;28;20043;-74
2022/07/26 02:35:15;;;;;;;2.33;0.35;;;23.20;61.20;;;;;;5114570;28;20081;-75
2022/07/26 02:37:41;;;;;;;2.92;0.38;;;23.20;61.30;;;;;;5112945;28;20050;-74
2022/07/26 02:40:07;;;;;;;3.35;0.45;;;23.20;61.30;;;;;;5112795;28;20048;-74
2022/07/26 02:42:33;;;;;;;1.73;0.30;;;23.20;61.30;;;;;;5112911;28;20047;-74
2022/07/26 02:44:59;;;;;;;3.58;0.40;;;23.20;61.30;;;;;;5112883;28;20398;-74
2022/07/26 02:47:24;;;;;;;2.10;0.38;;;23.20;61.30;;;;;;5112671;28;20040;-74
2022/07/26 02:49:50;;;;;;;2.38;0.30;;;23.20;61.30;;;;;;5112471;28;20122;-74
2022/07/26 02:52:16;;;;;;;1.92;0.50;;;23.20;61.40;;;;;;5112854;28;20035;-74
2022/07/26 02:54:41;;;;;;;2.97;0.38;;;23.20;61.30;;;;;;5112478;28;20440;-73
2022/07/26 02:57:07;;;;;;;3.15;0.35;;;23.20;61.30;;;;;;5112704;28;20089;-74
2022/07/26 02:59:33;;;;;;;2.25;0.22;;;23.20;61.40;;;;;;5113629;28;20071;-74
2022/07/26 03:01:59;;;;;;;2.05;0.35;;;23.20;61.40;;;;;;5112315;28;20047;-74
2022/07/26 03:04:25;;;;;;;1.63;0.30;;;23.20;61.40;;;;;;5112427;28;20028;-74
2022/07/26 03:06:50;;;;;;;1.77;0.40;;;23.20;61.40;;;;;;5112570;28;20435;-74
2022/07/26 03:09:16;;;;;;;3.28;0.40;;;23.20;61.50;;;;;;5113500;28;20391;-74
2022/07/26 03:11:44;;;;;;;3.22;0.30;;;23.20;61.40;;;;;;5112407;28;20096;-74
2022/07/26 03:14:10;;;;;;;2.25;0.43;;;23.10;61.40;;;;;;5112512;28;20059;-74
2022/07/26 03:16:35;;;;;;;2.05;0.30;;;23.10;61.40;;;;;;5113344;28;20414;-75
2022/07/26 03:19:04;;;;;;;2.83;0.73;;;23.10;61.40;;;;;;5112004;28;20058;-77
2022/07/26 03:21:29;;;;;;;1.92;0.30;;;23.10;61.40;;;;;;5112928;28;20122;-78
2022/07/26 03:23:55;;;;;;;1.75;0.40;;;23.10;61.40;;;;;;5112186;28;20047;-79
2022/07/26 03:26:21;;;;;;;1.65;0.50;;;23.10;61.40;;;;;;5112080;28;20039;-79
2022/07/26 03:28:49;;;;;;;2.30;0.40;;;23.10;61.40;;;;;;5094947;28;20039;-79
2022/07/26 03:31:18;;;;;;;2.83;0.68;;;23.20;61.50;;;;;;5112077;28;20035;-79
2022/07/26 03:33:44;;;;;;;2.42;0.60;;;23.10;61.40;;;;;;5113249;28;20047;-79
2022/07/26 03:36:09;;;;;;;2.80;0.47;;;23.20;61.50;;;;;;5111812;28;20043;-79
2022/07/26 03:38:36;;;;;;;2.30;0.30;;;23.10;61.50;;;;;;5111745;28;20070;-78
2022/07/26 03:41:02;;;;;;;1.77;0.30;;;23.10;61.40;;;;;;5111638;28;20088;-78
2022/07/26 03:43:27;;;;;;;2.15;0.40;;;23.10;61.50;;;;;;5111503;28;20036;-78
2022/07/26 03:45:53;;;;;;;1.08;0.30;;;23.10;61.50;;;;;;5112326;28;20040;-79
2022/07/26 03:48:19;;;;;;;1.35;0.30;;;23.10;61.60;;;;;;5111552;28;20047;-78
2022/07/26 03:50:45;;;;;;;1.73;0.47;;;23.10;61.50;;;;;;5111412;28;20035;-78
2022/07/26 03:53:10;;;;;;;3.33;0.40;;;23.10;61.60;;;;;;5111272;28;20100;-78
2022/07/26 03:58:24;;;;;;;1.63;0.20;;;23.10;61.60;;;;;;5111145;28;20044;-78
2022/07/26 04:00:50;;;;;;;1.65;0.40;;;23.10;61.60;;;;;;5111679;28;20055;-78
2022/07/26 04:03:15;;;;;;;3.20;0.50;;;23.10;61.60;;;;;;5111177;28;20442;-77
2022/07/26 04:05:41;;;;;;;1.25;0.20;;;23.10;61.60;;;;;;5111560;28;20463;-77
2022/07/26 04:08:07;;;;;;;1.35;0.30;;;23.10;61.70;;;;;;5111491;28;20391;-77
2022/07/26 04:10:34;;;;;;;1.63;0.30;;;23.10;61.60;;;;;;5111186;28;20512;-76
2022/07/26 04:12:59;;;;;;;1.77;0.20;;;23.10;61.60;;;;;;5111453;28;20035;-76
2022/07/26 04:15:25;;;;;;;1.50;0.32;;;23.00;61.50;;;;;;5111166;28;20493;-77
2022/07/26 04:17:50;;;;;;;1.50;0.30;;;23.10;61.60;;;;;;5111002;28;20046;-77
2022/07/26 04:20:16;;;;;;;1.70;0.28;;;23.10;61.60;;;;;;5111084;28;20047;-77
2022/07/26 04:22:42;;;;;;;1.23;0.20;;;23.10;61.60;;;;;;5111974;28;20055;-77
2022/07/26 04:25:09;;;;;;;1.77;0.30;;;23.00;61.60;;;;;;5111117;28;20506;-77
2022/07/26 04:27:35;;;;;;;1.38;0.30;;;23.00;61.60;;;;;;5110956;28;20036;-77
2022/07/26 04:30:01;;;;;;;1.73;0.30;;;23.00;61.60;;;;;;5112355;28;20039;-76
2022/07/26 04:32:27;;;;;;;0.68;0.20;;;23.00;61.60;;;;;;5110884;28;20433;-77
2022/07/26 04:34:52;;;;;;;2.70;0.47;;;23.00;61.70;;;;;;5111243;28;20089;-76
2022/07/26 04:37:18;;;;;;;0.93;0.20;;;23.00;61.70;;;;;;5110999;28;20036;-75
2022/07/26 04:39:44;;;;;;;1.67;0.20;;;23.00;61.70;;;;;;5111115;28;20039;-76
2022/07/26 04:42:10;;;;;;;2.03;0.30;;;23.00;61.70;;;;;;5111056;28;20127;-76
2022/07/26 04:44:36;;;;;;;1.90;0.30;;;23.00;61.70;;;;;;5111053;28;20074;-76
2022/07/26 04:47:02;;;;;;;1.45;0.20;;;23.00;61.70;;;;;;5111133;28;20036;-76
2022/07/26 04:49:28;;;;;;;1.52;0.30;;;23.00;61.70;;;;;;5110747;28;20039;-77
2022/07/26 04:51:53;;;;;;;1.73;0.38;;;23.00;61.70;;;;;;5110735;28;20114;-76
2022/07/26 04:54:21;;;;;;;0.90;0.30;;;23.00;61.70;;;;;;5110786;28;20061;-76
2022/07/26 04:56:47;;;;;;;1.02;0.20;;;23.00;61.70;;;;;;5110761;28;20518;-76
2022/07/26 04:59:13;;;;;;;1.92;0.30;;;23.00;62.00;;;;;;5110927;28;20085;-76
2022/07/26 05:01:43;;;;;;;1.15;0.20;;;23.00;61.80;;;;;;5110904;28;20036;-76
2022/07/26 05:04:09;;;;;;;1.27;0.30;;;23.00;61.80;;;;;;5112013;28;20044;-76
2022/07/26 05:06:35;;;;;;;2.90;0.20;;;22.90;61.70;;;;;;5114922;28;20483;-76
2022/07/26 05:09:01;;;;;;;2.03;0.25;;;22.90;61.80;;;;;;5114646;28;20035;-76
2022/07/26 05:11:29;;;;;;;1.70;0.50;;;23.00;61.80;;;;;;5114546;28;20052;-76
2022/07/26 05:13:55;;;;;;;1.67;0.20;;;22.90;61.80;;;;;;5114501;28;20051;-76
2022/07/26 05:16:20;;;;;;;1.40;0.68;;;23.00;61.80;;;;;;5114445;28;20048;-76
2022/07/26 05:18:46;;;;;;;1.48;0.20;;;22.90;61.80;;;;;;5114580;28;20051;-76
2022/07/26 05:21:12;;;;;;;0.98;0.30;;;23.00;61.80;;;;;;5114000;28;20055;-77
2022/07/26 05:23:37;;;;;;;1.70;0.30;;;23.00;62.60;;;;;;5114572;28;20169;-76
2022/07/26 05:26:03;;;;;;;1.92;0.52;;;23.00;61.80;;;;;;5114181;28;20039;-77
2022/07/26 05:28:28;;;;;;;0.90;0.30;;;22.90;61.80;;;;;;5114260;28;20054;-77
2022/07/26 05:30:54;;;;;;;1.83;0.30;;;22.90;61.80;;;;;;5114450;28;20031;-76
2022/07/26 05:33:20;;;;;;;1.38;0.40;;;22.90;61.80;;;;;;5115488;28;20602;-75
2022/07/26 05:35:46;;;;;;;1.50;0.22;;;22.90;61.80;;;;;;5115254;27;20039;-76
2022/07/26 05:38:11;;;;;;;1.40;0.20;;;22.90;61.90;;;;;;5114327;28;20053;-76
2022/07/26 05:40:40;;;;;;;0.85;0.20;;;22.90;61.80;;;;;;5113911;28;20513;-76
2022/07/26 05:43:06;;;;;;;0.80;0.20;;;22.90;61.80;;;;;;5113938;28;20027;-76
2022/07/26 05:45:32;;;;;;;0.93;0.30;;;22.90;61.80;;;;;;5113919;28;20121;-76
2022/07/26 05:47:57;;;;;;;0.80;0.28;;;22.90;61.90;;;;;;5113853;28;20043;-76
2022/07/26 05:50:23;;;;;;;1.38;0.30;;;22.90;61.80;;;;;;5113674;28;20073;-76
2022/07/26 05:52:49;;;;;;;1.20;0.30;;;22.90;61.80;;;;;;5113761;28;20043;-76
2022/07/26 05:55:14;;;;;;;1.30;0.32;;;22.90;61.80;;;;;;5113970;28;20126;-76
2022/07/26 05:57:40;;;;;;;1.08;0.25;;;22.90;61.80;;;;;;5113729;28;20269;-76
2022/07/26 06:00:08;;;;;;;2.58;0.30;;;22.90;61.80;;;;;;5115712;28;20040;-76
2022/07/26 06:02:34;;;;;;;1.27;0.32;;;22.90;61.80;;;;;;5115183;28;20398;-76
2022/07/26 06:04:59;;;;;;;1.23;0.45;;;22.90;61.80;;;;;;5113770;28;20044;-75
2022/07/26 06:07:25;;;;;;;0.85;0.20;;;22.90;61.80;;;;;;5113559;28;20039;-75
2022/07/26 06:09:54;;;;;;;1.63;0.32;;;22.90;61.80;;;;;;5115095;28;20031;-75
2022/07/26 06:12:19;;;;;;;1.48;0.30;;;22.90;61.80;;;;;;5113445;28;20046;-76
2022/07/26 06:14:45;;;;;;;0.80;0.20;;;22.90;61.80;;;;;;5112966;28;20043;-75
2022/07/26 06:17:10;;;;;;;1.10;0.20;;;22.90;61.80;;;;;;5114799;28;20173;-76
2022/07/26 06:19:36;;;;;;;1.70;0.20;;;22.90;61.70;;;;;;5114406;28;20031;-75
2022/07/26 06:22:02;;;;;;;1.33;0.20;;;22.90;61.70;;;;;;5112919;28;20047;-76
2022/07/26 06:24:28;;;;;;;1.38;0.20;;;22.90;61.70;;;;;;5113469;28;20437;-76
2022/07/26 06:26:55;;;;;;;0.80;0.20;;;22.90;61.80;;;;;;5113041;28;20039;-76
2022/07/26 06:29:21;;;;;;;1.00;0.52;;;22.90;61.70;;;;;;5113089;28;20107;-76
2022/07/26 06:31:47;;;;;;;0.60;0.20;;;22.90;61.70;;;;;;5113012;28;20054;-76
2022/07/26 06:34:13;;;;;;;1.00;0.30;;;22.90;61.60;;;;;;5114279;28;20040;-76
2022/07/26 06:36:39;;;;;;;0.70;0.30;;;22.90;61.60;;;;;;5113177;28;20062;-76
2022/07/26 06:39:05;;;;;;;2.70;0.30;;;22.90;61.60;;;;;;5112859;28;20039;-76
2022/07/26 06:41:33;;;;;;;0.57;0.30;;;22.90;61.60;;;;;;5112936;28;20036;-77
2022/07/26 06:43:59;;;;;;;0.88;0.22;;;22.90;61.60;;;;;;5112824;28;20035;-76
2022/07/26 06:46:25;;;;;;;1.75;0.20;;;22.90;61.50;;;;;;5114341;28;20051;-75
2022/07/26 06:48:50;;;;;;;0.98;0.20;;;22.90;61.50;;;;;;5112643;28;20035;-76
2022/07/26 06:51:16;;;;;;;0.85;0.20;;;22.90;61.50;;;;;;5112602;28;20054;-76
2022/07/26 06:53:42;;;;;;;0.98;0.10;;;22.90;61.50;;;;;;5112704;28;20129;-75
2022/07/26 06:56:07;;;;;;;1.88;0.20;;;22.90;61.50;;;;;;5112707;28;20040;-75
2022/07/26 06:58:33;;;;;;;0.95;0.20;;;22.90;61.50;;;;;;5112680;28;20050;-75
2022/07/26 07:00:59;;;;;;;0.75;0.20;;;22.90;61.50;;;;;;5113827;28;20077;-76
2022/07/26 07:03:24;;;;;;;0.50;0.20;;;22.90;61.50;;;;;;5112178;28;20384;-76
2022/07/26 07:05:50;;;;;;;1.23;0.13;;;22.90;61.40;;;;;;5112254;28;20044;-75
2022/07/26 07:08:17;;;;;;;1.60;0.20;;;22.90;61.50;;;;;;5113536;28;20031;-75
2022/07/26 07:10:43;;;;;;;0.80;0.20;;;22.90;61.50;;;;;;5112634;28;20373;-76
2022/07/26 07:13:08;;;;;;;0.50;0.10;;;22.90;61.40;;;;;;5113684;27;20081;-75
2022/07/26 07:15:34;;;;;;;3.72;0.43;;;22.90;61.40;;;;;;5112640;28;20517;-76
2022/07/26 07:18:00;;;;;;;0.80;0.20;;;22.90;61.40;;;;;;5113781;28;20039;-76
2022/07/26 07:20:28;;;;;;;0.88;0.13;;;22.90;61.40;;;;;;5111968;28;20047;-75
2022/07/26 07:22:54;;;;;;;0.50;0.10;;;22.90;61.30;;;;;;5111603;28;20059;-75
2022/07/26 07:25:20;;;;;;;0.65;0.20;;;22.90;61.30;;;;;;5113487;28;20502;-75
2022/07/26 07:27:45;;;;;;;0.98;0.10;;;22.90;61.30;;;;;;5111429;28;20028;-75
2022/07/26 07:30:11;;;;;;;0.47;0.10;;;22.90;61.30;;;;;;5111847;28;20076;-75
2022/07/26 07:32:37;;;;;;;0.70;0.10;;;22.80;61.30;;;;;;5112048;28;20083;-75
2022/07/26 07:35:03;;;;;;;1.25;0.10;;;22.80;61.30;;;;;;5113742;28;20044;-76
2022/07/26 07:37:29;;;;;;;1.00;0.20;;;22.80;61.30;;;;;;5111719;28;20047;-76
2022/07/26 07:39:55;;;;;;;1.30;0.30;;;22.80;61.20;;;;;;5113095;28;20039;-76
2022/07/26 07:42:20;;;;;;;0.75;0.10;;;22.80;61.20;;;;;;5111823;28;20050;-76
2022/07/26 07:44:46;;;;;;;0.63;0.10;;;22.80;61.20;;;;;;5111572;28;20372;-76
2022/07/26 07:47:13;;;;;;;1.17;0.20;;;22.80;61.20;;;;;;5111936;28;20168;-75
2022/07/26 07:49:38;;;;;;;1.15;0.10;;;22.80;61.10;;;;;;5111802;28;20108;-76
2022/07/26 07:52:04;;;;;;;0.77;0.20;;;22.80;61.10;;;;;;5111470;28;20420;-76
2022/07/26 07:54:30;;;;;;;1.10;0.10;;;22.90;61.10;;;;;;5111698;28;20035;-76
2022/07/26 07:56:55;;;;;;;1.38;0.20;;;22.90;61.10;;;;;;5113103;28;20040;-76
2022/07/26 07:59:22;;;;;;;0.93;0.20;;;22.80;61.00;;;;;;5111390;28;20039;-76
2022/07/26 08:01:47;;;;;;;1.17;0.20;;;22.90;61.00;;;;;;5111496;28;20044;-76
2022/07/26 08:04:13;;;;;;;1.20;0.10;;;22.80;60.90;;;;;;5111578;28;20390;-76
2022/07/26 08:06:39;;;;;;;1.02;0.50;;;22.90;60.80;;;;;;5111283;28;20048;-77
2022/07/26 08:09:04;;;;;;;0.95;0.10;;;22.90;60.80;;;;;;5111434;28;20042;-75
2022/07/26 08:11:30;;;;;;;0.40;0.10;;;22.90;60.80;;;;;;5112513;28;20116;-75
2022/07/26 08:13:56;;;;;;;0.55;0.10;;;22.90;60.70;;;;;;5111166;28;20047;-76
2022/07/26 08:16:21;;;;;;;0.88;0.10;;;22.90;60.70;;;;;;5111128;28;20043;-76
2022/07/26 08:18:47;;;;;;;0.98;0.13;;;22.90;60.70;;;;;;5111145;28;20040;-76
2022/07/26 08:21:13;;;;;;;0.65;0.10;;;22.90;60.70;;;;;;5110829;28;20123;-76
2022/07/26 08:23:39;;;;;;;0.45;0.20;;;22.90;60.70;;;;;;5111286;28;20123;-76
2022/07/26 08:26:04;;;;;;;0.88;0.10;;;22.80;60.60;;;;;;5111015;28;20105;-76
2022/07/26 08:28:30;;;;;;;0.65;0.10;;;22.90;60.60;;;;;;5111571;28;20043;-76
2022/07/26 08:30:58;;;;;;;0.45;0.10;;;22.90;60.60;;;;;;5110978;28;20035;-76
2022/07/26 08:33:24;;;;;;;0.40;0.10;;;22.90;60.60;;;;;;5111260;28;20092;-76
2022/07/26 08:35:50;;;;;;;1.55;0.25;;;22.90;60.50;;;;;;5112259;28;20468;-76
2022/07/26 08:38:15;;;;;;;0.50;0.10;;;22.90;60.50;;;;;;5112351;28;20031;-76
2022/07/26 08:40:41;;;;;;;0.57;0.10;;;22.90;60.40;;;;;;5115116;28;20075;-76
2022/07/26 08:43:07;;;;;;;0.22;0.10;;;22.90;60.30;;;;;;5115200;28;20036;-75
2022/07/26 08:45:33;;;;;;;0.57;0.10;;;22.90;60.30;;;;;;5116803;28;20040;-76
2022/07/26 08:48:00;;;;;;;1.30;0.10;;;22.90;60.20;;;;;;5116299;28;20483;-76
2022/07/26 08:50:27;;;;;;;1.00;0.10;;;23.00;60.20;;;;;;5115062;28;20070;-76
2022/07/26 08:52:58;;;;;;;0.95;0.10;;;22.90;60.10;;;;;;5115302;28;20056;-75
2022/07/26 08:55:23;;;;;;;0.32;0.10;;;23.00;60.00;;;;;;5116928;28;20138;-75
2022/07/26 08:57:49;;;;;;;0.57;0.10;;;23.00;60.00;;;;;;5115477;28;20126;-76
2022/07/26 09:02:54;;;;;;;0.55;0.10;;;23.00;59.90;;;;;;5130261;27;20383;-76
2022/07/26 09:05:39;;;;;;;0.50;0.10;;;23.10;59.90;;;;;;5129017;27;20047;-76
2022/07/26 09:08:23;;;;;;;0.40;0.10;;;23.00;59.70;;;;;;5128827;28;20036;-76
2022/07/26 09:10:49;;;;;;;0.20;0.00;;;23.10;59.70;;;;;;5129192;28;20035;-76
2022/07/26 09:13:15;;;;;;;1.48;0.65;;;23.10;59.70;;;;;;5129579;28;20375;-76
2022/07/26 09:15:41;;;;;;;0.98;0.10;;;23.10;59.60;;;;;;5128444;28;20092;-73
2022/07/26 09:18:25;;;;;;;0.45;0.00;;;23.10;59.50;;;;;;5128793;28;20028;-73
2022/07/26 09:20:51;;;;;;;0.80;0.30;;;23.10;59.70;;;;;;5127657;28;20043;-76
2022/07/26 09:23:16;;;;;;;2.47;0.10;;;23.10;59.70;;;;;;5128267;28;20468;-76
2022/07/26 09:25:44;;;;;;;3.03;0.10;;;23.10;59.80;;;;;;5127739;28;20043;-76
2022/07/26 09:28:30;;;;;;;7.32;0.10;;;23.20;59.80;;;;;;5127943;28;20035;-75
2022/07/26 09:30:58;;;;;;;6.88;0.35;;;23.20;60.10;;;;;;5126067;28;20074;-76
2022/07/26 09:33:24;;;;;;;6.70;0.93;;;23.20;60.00;;;;;;5128575;28;20430;-76
2022/07/26 09:36:06;;;;;;;1.40;0.10;;;23.20;59.90;;;;;;5125123;27;20527;-76
2022/07/26 09:41:24;;;;;;;1.48;0.20;;;23.30;60.20;;;;;;5129494;27;20418;-76
2022/07/26 09:43:49;;;;;;;;;;;23.40;60.10;;;;;;5117984;28;20036;-76
2022/07/26 09:46:16;;;;;;;1.65;0.20;;;23.40;60.40;;;;;;5116203;28;20599;-78
2022/07/26 09:48:43;;;;;;;3.20;0.10;;;23.40;59.90;;;;;;5122382;28;20383;-76
2022/07/26 09:51:09;;;;;;;1.02;0.00;;;23.40;59.70;;;;;;5107489;28;20035;-76
2022/07/26 09:53:45;;;;;;;0.95;0.10;;;23.50;59.50;;;;;;5107248;28;20043;-76
2022/07/26 09:56:12;;;;;;;1.38;0.10;;;23.60;59.10;;;;;;5113025;28;20043;-74
2022/07/26 09:58:41;;;;;;;1.60;0.00;;;23.70;59.00;;;;;;5127712;28;20050;-77
2022/07/26 10:01:07;;;;;;;0.60;0.10;;;23.70;58.80;;;;;;5122126;28;20048;-76
2022/07/26 10:03:34;;;;;;;4.85;0.30;;;23.70;58.50;;;;;;5108352;28;20039;-76
2022/07/26 10:06:01;;;;;;;3.17;0.10;;;23.80;58.30;;;;;;5119202;28;20051;-77
2022/07/26 10:08:27;;;;;;;4.65;0.20;;;23.80;58.10;;;;;;5120429;28;20080;-72
2022/07/26 10:11:01;;;;;;;1.15;0.10;;;23.90;58.00;;;;;;5121073;28;20569;-73
2022/07/26 10:13:29;;;;;;;2.15;0.10;;;23.90;57.90;;;;;;5115014;28;20055;-73
2022/07/26 10:15:55;;;;;;;0.77;0.10;;;23.90;57.80;;;;;;5120288;27;20471;-74
2022/07/26 10:24:01;;;;;;;9.52;0.20;;;23.90;57.60;;;;;;5089508;28;20349;-75
2022/07/26 10:26:35;;;;;;;2.10;0.30;;;23.90;57.20;;;;;;5087968;28;20044;-73
2022/07/26 10:32:14;;;;;;;1.50;0.10;;;23.90;57.20;;;;;;5088961;27;20382;-74
2022/07/26 10:34:39;;;;;;;3.60;0.10;;;23.90;57.50;;;;;;5087601;28;20062;-77
2022/07/26 10:37:10;;;;;;;1.52;0.10;;;23.90;57.40;;;;;;5087587;28;20138;-77
2022/07/26 10:39:36;;;;;;;1.08;0.20;;;24.00;57.40;;;;;;5088312;28;20044;-78
2022/07/26 10:44:43;;;;;;;0.73;0.10;;;24.00;57.40;;;;;;5130093;27;20361;-77
2022/07/26 10:47:14;;;;;;;2.17;0.17;;;24.00;57.20;;;;;;5113779;28;20044;-77
2022/07/26 10:52:28;;;;;;;0.90;0.20;;;24.00;57.10;;;;;;5143709;27;20382;-76
2022/07/26 10:57:45;;;;;;;1.92;0.10;;;24.00;57.10;;;;;;5147736;27;20123;-76
2022/07/26 11:00:17;;;;;;;1.85;0.10;;;24.10;57.00;;;;;;5128604;28;20043;-75
2022/07/26 11:02:46;;;;;;;1.67;0.20;;;24.10;56.90;;;;;;5129143;28;20044;-75
2022/07/26 11:05:14;;;;;;;1.38;0.10;;;24.10;57.10;;;;;;5128696;28;20043;-74
2022/07/26 11:08:04;;;;;;;0.10;0.00;;;24.10;57.00;;;;;;5128911;28;20046;-75
2022/07/26 11:10:32;;;;;;;1.15;0.08;;;24.10;57.00;;;;;;5123400;28;20075;-74
2022/07/26 11:15:42;;;;;;;0.95;0.10;;;24.10;57.00;;;;;;5089802;27;20897;-76
2022/07/26 11:18:13;;;;;;;0.75;0.10;;;24.10;56.90;;;;;;5088083;28;20130;-75
2022/07/26 11:20:40;;;;;;;0.50;0.05;;;24.10;56.90;;;;;;5087907;28;20048;-75
2022/07/26 11:26:22;;;;;;;2.30;0.20;;;24.00;56.90;;;;;;5108601;27;20376;-75
2022/07/26 11:28:58;;;;;;;1.23;0.10;;;24.10;57.00;;;;;;5108059;28;20391;-74
2022/07/26 11:31:33;;;;;;;1.00;0.10;;;24.00;56.90;;;;;;5108204;28;20044;-74
2022/07/26 11:33:59;;;;;;;1.38;0.10;;;24.00;56.80;;;;;;5108374;28;20040;-74
2022/07/26 11:36:32;;;;;;;0.55;0.05;;;24.10;56.90;;;;;;5108408;28;20453;-72
2022/07/26 11:38:58;;;;;;;1.58;0.60;;;24.10;56.80;;;;;;5107007;28;20115;-74
2022/07/26 11:41:25;;;;;;;1.92;0.10;;;24.00;56.70;;;;;;5108342;28;20079;-76
2022/07/26 11:43:52;;;;;;;1.40;0.10;;;24.00;56.60;;;;;;5109229;28;20050;-74
2022/07/26 11:46:22;;;;;;;2.05;0.15;;;24.00;56.40;;;;;;5108490;28;20106;-79
2022/07/26 11:48:50;;;;;;;4.80;0.20;;;24.00;56.40;;;;;;5108348;28;20395;-78
2022/07/26 11:51:18;;;;;;;2.33;0.10;;;24.00;56.30;;;;;;5107968;28;20044;-78
2022/07/26 11:53:45;;;;;;;5.93;0.30;;;23.90;56.20;;;;;;5107400;28;20040;-78
2022/07/26 11:58:55;;;;;;;1.88;0.20;;;23.90;56.30;;;;;;5089266;28;20417;-78
2022/07/26 12:01:21;;;;;;;1.92;0.40;;;23.80;56.30;;;;;;5088437;28;20047;-78
2022/07/26 12:03:50;;;;;;;1.13;0.10;;;23.80;56.40;;;;;;5088252;28;20048;-77
2022/07/26 12:06:19;;;;;;;1.60;0.20;;;23.80;56.40;;;;;;5071453;28;20051;-78
2022/07/26 12:08:52;;;;;;;1.33;0.13;;;23.70;56.30;;;;;;5087966;28;20044;-78
2022/07/26 12:11:19;;;;;;;1.92;0.20;;;23.70;56.40;;;;;;5088129;28;20051;-78
2022/07/26 12:16:48;;;;;;;4.20;0.30;;;23.70;56.50;;;;;;5130263;27;20391;-79
2022/07/26 12:22:11;;;;;;;3.38;0.57;;;23.60;56.40;;;;;;5150986;27;20555;-79
2022/07/26 12:24:44;;;;;;;2.55;0.13;;;23.60;56.50;;;;;;5128947;28;20043;-78
2022/07/26 12:32:44;;;;;;;3.15;0.38;;;23.50;56.50;;;;;;5130215;27;20143;-85
2022/07/26 12:35:13;;;;;;;0.88;0.30;;;23.50;56.50;;;;;;5129161;27;20043;-85
2022/07/26 12:40:25;;;;;;;1.42;0.10;;;23.50;56.40;;;;;;5109721;27;20408;-78
2022/07/26 12:45:32;;;;;;;1.35;0.10;;;23.50;56.40;;;;;;5130246;27;20407;-78
2022/07/26 12:48:00;;;;;;;1.65;0.10;;;23.40;56.30;;;;;;5129226;28;20108;-78
2022/07/26 12:50:28;;;;;;;0.60;0.10;;;23.50;56.30;;;;;;5129152;28;20118;-77
2022/07/26 12:53:03;;;;;;;2.63;0.30;;;23.40;56.20;;;;;;5129165;28;20031;-77
2022/07/26 12:55:29;;;;;;;1.02;0.20;;;23.40;56.10;;;;;;5128860;28;20043;-77
2022/07/26 12:57:55;;;;;;;2.45;0.35;;;23.40;56.20;;;;;;5129084;28;20068;-78
2022/07/26 13:00:20;;;;;;;1.60;0.20;;;23.40;56.10;;;;;;5128791;28;20110;-78
2022/07/26 13:02:46;;;;;;;1.23;0.10;;;23.40;56.10;;;;;;5128673;28;20070;-78
2022/07/26 13:05:13;;;;;;;1.40;0.10;;;23.40;56.10;;;;;;5129752;27;20395;-77
2022/07/26 13:07:39;;;;;;;1.00;0.15;;;23.40;56.10;;;;;;5128682;27;20039;-77
2022/07/26 13:10:07;;;;;;;2.90;0.20;;;23.40;56.10;;;;;;5128820;27;20047;-77
2022/07/26 13:12:34;;;;;;;1.55;0.10;;;23.40;56.00;;;;;;5128855;28;20043;-77
2022/07/26 13:15:00;;;;;;;1.00;0.20;;;23.40;56.00;;;;;;5129759;27;20479;-78
2022/07/26 13:17:25;;;;;;;2.22;0.20;;;23.40;55.90;;;;;;5145984;27;20293;-77
2022/07/26 13:19:51;;;;;;;1.73;0.22;;;23.40;55.80;;;;;;5145640;27;20502;-77
2022/07/26 13:22:17;;;;;;;2.55;0.63;;;23.40;55.80;;;;;;5129855;28;20043;-77
2022/07/26 13:24:42;;;;;;;0.93;0.10;;;23.40;55.80;;;;;;5128329;28;20489;-77
2022/07/26 13:27:08;;;;;;;0.65;0.10;;;23.40;55.80;;;;;;5129911;28;20466;-77
2022/07/26 13:29:35;;;;;;;1.00;0.20;;;23.40;55.70;;;;;;5128638;28;20535;-77
2022/07/26 13:32:02;;;;;;;2.03;0.25;;;23.40;55.70;;;;;;5128386;28;20041;-77
2022/07/26 13:34:29;;;;;;;1.67;0.20;;;23.40;55.60;;;;;;5127955;28;20092;-78
2022/07/26 13:36:55;;;;;;;0.80;0.10;;;23.40;55.60;;;;;;5127960;28;20042;-77